Главная страница
METAR-TAF:

METAR-TAF

Аэропорты :

Международный аэропорт имени Хосе Марти

Гавана, Куба

широта: 22-59N, долгота: 082-24W, высота над уровнем моря: 59 м

Текущие метеонаблюдения

Эта сводка был подготовлена 40 минут назад, в 08:55 UTC
Ветер 4 Узел от восточно-северо-восточный
Температура 23°C
Влажность 89%
Давление 1016 hPa
Видимость: 9000 м

METAR: MUHA 250855Z 06004KT 9000 NSC 23/21 Q1016

Время: 05:35 (09:35 UTC)

Прогноз

Эта сводка был подготовлена 4 часа и 35 минут назад, в 05:00 UTC
Прогноз действительный с 25-го 06 UTC до 26-го 06 UTC
Ветер 3 Узел переменных направлений
Видимость: 9000 м
небольшая облачность на высоте 4000 фута
изменения
С 25-го 14 UTC до 25-го 16 UTC
Ветер 10 Узел от юго-юго-восточный
временами
С 25-го 19 UTC до 25-го 23 UTC
Видимость: 3000 м
Отдельные облака на высоте 1800 фута, Кучево-дождевые.
Рассеянная облачность на высоте 2000 фута
гроза, дождь

TAF: MUHA 250500Z 2506/2606 VRB03KT 9000 FEW040 BECMG 2514/2516 15010KT TEMPO 2519/2523 3000 TSRA SCT018CB BKN020

Метеонаблюдения и прогнозы для более 4000 аэропортов (сводки METAR и TAF).

Имеющиеся станции представлены на карте желтыми и красными точками.

Чтобы увидеть название станции, наведите на нее мышь.

Затем щелкните, чтобы увидеть метеонаблюдения и метеопрогнозы.

Управление картой: чтобы увеличить масштаб, щелкните зеленые кнопки с черным крестиком; чтобы уменьшить масштаб, щелкните зеленую кнопку с тире; для просмотра соседних карт щелкайте зеленые стрелки.


METAR-TAF: